Time;durP1;ratioP1;P1;durP2;ratioP2;P2;SDS_P1;SDS_P2;PMS_P1;PMS_P2;Temp;Humidity;BMP_temperature;BMP_pressure;BME280_temperature;BME280_humidity;BME280_pressure;Samples;Min_cycle;Max_cycle;Signal;HPM_P1;HPM_P2
2022/11/28 00:00:31;;;;;;;3.90;1.77;;;3.00;99.90;;;;;;5018994;28;20571;-72
2022/11/28 00:02:57;;;;;;;3.45;1.40;;;3.10;99.90;;;;;;5016594;28;20363;-71
2022/11/28 00:05:22;;;;;;;2.42;1.10;;;3.20;99.90;;;;;;5018719;28;20045;-72
2022/11/28 00:07:48;;;;;;;7.30;1.80;;;3.10;99.90;;;;;;5019071;28;20112;-71
2022/11/28 00:10:14;;;;;;;4.03;1.75;;;3.00;99.90;;;;;;5023756;28;20030;-71
2022/11/28 00:12:40;;;;;;;6.10;2.67;;;3.00;99.90;;;;;;5020450;28;20082;-71
2022/11/28 00:15:06;;;;;;;4.13;1.50;;;3.00;99.90;;;;;;5020829;28;20061;-71
2022/11/28 00:17:31;;;;;;;4.82;2.30;;;2.70;99.90;;;;;;5023450;28;20058;-71
2022/11/28 00:19:58;;;;;;;4.88;1.60;;;2.70;99.90;;;;;;5017031;28;20032;-71
2022/11/28 00:22:26;;;;;;;5.75;1.92;;;2.70;99.90;;;;;;5021795;28;20048;-71
2022/11/28 00:24:52;;;;;;;4.55;1.85;;;2.70;99.90;;;;;;5024394;28;20125;-71
2022/11/28 00:27:17;;;;;;;3.60;2.38;;;2.80;99.90;;;;;;5025017;28;20100;-71
2022/11/28 00:29:43;;;;;;;4.13;1.77;;;2.80;99.90;;;;;;5021674;28;20053;-71
2022/11/28 00:32:09;;;;;;;3.88;1.90;;;2.90;99.90;;;;;;5019598;28;20435;-71
2022/11/28 00:34:34;;;;;;;5.32;2.17;;;3.00;99.90;;;;;;5024997;28;20104;-71
2022/11/28 00:37:00;;;;;;;5.35;2.22;;;3.10;99.90;;;;;;5024971;28;20042;-71
2022/11/28 00:39:26;;;;;;;5.85;2.10;;;3.00;99.90;;;;;;5025224;28;20025;-71
2022/11/28 00:41:51;;;;;;;3.97;2.00;;;3.00;99.90;;;;;;5026005;28;20042;-71
2022/11/28 00:44:17;;;;;;;4.22;1.85;;;2.90;99.90;;;;;;5022110;28;20032;-71
2022/11/28 00:46:43;;;;;;;6.72;1.85;;;2.80;99.90;;;;;;5025029;28;20033;-71
2022/11/28 00:49:08;;;;;;;3.83;1.83;;;2.70;99.90;;;;;;5025927;28;20654;-71
2022/11/28 00:51:34;;;;;;;5.55;1.90;;;2.80;99.90;;;;;;5025170;28;20033;-71
2022/11/28 00:54:02;;;;;;;5.65;2.45;;;2.90;99.90;;;;;;5024861;28;20029;-71
2022/11/28 00:56:32;;;;;;;5.88;2.17;;;2.90;99.90;;;;;;5023178;28;20164;-71
2022/11/28 00:58:58;;;;;;;5.63;2.25;;;2.90;99.90;;;;;;5028913;28;20021;-71
2022/11/28 01:01:27;;;;;;;5.25;2.80;;;2.80;99.90;;;;;;5023042;28;20508;-71
2022/11/28 01:03:54;;;;;;;6.65;2.95;;;2.80;99.90;;;;;;5028514;28;20052;-71
2022/11/28 01:06:32;;;;;;;5.63;2.70;;;2.80;99.90;;;;;;5023251;28;20496;-71
2022/11/28 01:09:00;;;;;;;5.57;2.70;;;2.80;99.90;;;;;;5025098;28;20040;-71
2022/11/28 01:11:27;;;;;;;4.47;2.17;;;2.80;99.90;;;;;;5025959;28;20030;-71
2022/11/28 01:13:55;;;;;;;5.30;2.17;;;2.80;99.90;;;;;;5025088;28;20100;-71
2022/11/28 01:16:21;;;;;;;3.50;1.92;;;2.80;99.90;;;;;;5025395;28;20119;-71
2022/11/28 01:18:46;;;;;;;4.75;2.28;;;2.80;99.90;;;;;;5025202;28;20117;-71
2022/11/28 01:21:12;;;;;;;5.20;2.50;;;2.70;99.90;;;;;;5026355;28;20116;-71
2022/11/28 01:23:38;;;;;;;6.97;2.83;;;2.60;99.90;;;;;;5023173;28;20539;-71
2022/11/28 01:26:06;;;;;;;5.45;2.90;;;2.70;99.90;;;;;;5025032;28;20393;-71
2022/11/28 01:28:32;;;;;;;4.22;2.20;;;2.70;99.90;;;;;;5023639;28;20373;-71
2022/11/28 01:31:03;;;;;;;6.07;2.50;;;2.90;99.90;;;;;;5026349;28;20528;-71
2022/11/28 01:33:29;;;;;;;4.32;2.00;;;2.90;99.90;;;;;;5023787;28;20087;-71
2022/11/28 01:35:57;;;;;;;5.32;2.30;;;2.80;99.90;;;;;;5024025;28;20443;-71
2022/11/28 01:38:23;;;;;;;3.85;1.80;;;2.50;99.90;;;;;;5025338;28;20109;-71
2022/11/28 01:40:50;;;;;;;4.78;1.70;;;2.60;99.90;;;;;;5026170;28;20072;-71
2022/11/28 01:43:16;;;;;;;6.40;2.67;;;2.80;99.90;;;;;;5024467;28;20064;-71
2022/11/28 01:45:41;;;;;;;7.78;2.60;;;2.90;99.90;;;;;;5025599;28;20487;-71
2022/11/28 01:48:10;;;;;;;8.70;2.75;;;2.80;99.90;;;;;;5024010;28;20036;-71
2022/11/28 01:50:37;;;;;;;5.95;2.20;;;2.80;99.90;;;;;;5024498;28;20041;-71
2022/11/28 01:53:07;;;;;;;4.53;2.17;;;2.80;99.90;;;;;;5025828;28;20026;-71
2022/11/28 01:55:38;;;;;;;7.85;2.63;;;2.90;99.90;;;;;;5024223;28;20029;-71
2022/11/28 01:58:05;;;;;;;4.15;2.22;;;3.00;99.90;;;;;;5024558;28;20155;-71
2022/11/28 02:00:33;;;;;;;5.85;2.40;;;2.90;99.90;;;;;;5021126;28;20356;-71
2022/11/28 02:03:05;;;;;;;4.70;2.38;;;2.80;99.90;;;;;;5023405;28;20391;-71
2022/11/28 02:05:30;;;;;;;5.03;2.35;;;2.80;99.90;;;;;;5021157;28;20833;-71
2022/11/28 02:07:56;;;;;;;4.38;1.80;;;2.80;99.90;;;;;;5025975;28;20105;-71
2022/11/28 02:10:30;;;;;;;6.50;1.90;;;2.80;99.90;;;;;;5024522;28;20049;-71
2022/11/28 02:13:05;;;;;;;4.57;2.13;;;2.60;99.90;;;;;;5025847;28;20029;-71
2022/11/28 02:15:57;;;;;;;7.88;2.90;;;2.50;99.90;;;;;;5023609;28;20076;-71
2022/11/28 02:18:53;;;;;;;5.60;2.30;;;2.50;99.90;;;;;;5002567;28;20053;-71
2022/11/28 02:21:31;;;;;;;4.32;1.75;;;2.60;99.90;;;;;;5019805;28;20136;-71
2022/11/28 02:24:34;;;;;;;5.05;2.30;;;2.50;99.90;;;;;;5020666;28;20068;-71
2022/11/28 02:27:26;;;;;;;4.88;2.35;;;2.50;99.90;;;;;;5023797;28;20033;-71
2022/11/28 02:29:58;;;;;;;4.25;2.30;;;2.50;99.90;;;;;;5020438;28;20033;-71
2022/11/28 02:32:53;;;;;;;5.30;2.15;;;2.50;99.90;;;;;;5022593;28;20373;-71
2022/11/28 02:35:45;;;;;;;7.15;3.00;;;2.50;99.90;;;;;;5016729;28;20573;-71
2022/11/28 02:38:18;;;;;;;7.38;3.50;;;2.60;99.90;;;;;;5021098;28;20045;-71
2022/11/28 02:40:49;;;;;;;5.88;2.58;;;2.40;99.90;;;;;;5023323;28;20092;-71
2022/11/28 02:43:22;;;;;;;6.05;2.20;;;2.30;99.90;;;;;;5019992;28;20039;-71
2022/11/28 02:45:57;;;;;;;6.07;2.78;;;2.30;99.90;;;;;;5023620;28;20117;-71
2022/11/28 02:48:31;;;;;;;3.50;2.22;;;2.30;99.90;;;;;;5022782;28;20033;-71
2022/11/28 02:51:31;;;;;;;8.35;2.70;;;2.50;99.90;;;;;;5024008;28;20032;-71
2022/11/28 02:54:00;;;;;;;8.27;2.78;;;2.60;99.90;;;;;;5023503;28;20109;-71
2022/11/28 02:56:26;;;;;;;4.88;2.45;;;2.70;99.90;;;;;;5027653;28;20030;-71
2022/11/28 02:58:52;;;;;;;5.60;2.10;;;2.70;99.90;;;;;;5025788;28;20025;-71
2022/11/28 03:01:26;;;;;;;4.97;2.70;;;2.80;99.90;;;;;;5020735;28;20049;-71
2022/11/28 03:04:26;;;;;;;5.53;2.78;;;2.90;99.90;;;;;;5024955;28;20025;-71
2022/11/28 03:07:14;;;;;;;5.65;2.50;;;3.00;99.90;;;;;;5023180;28;20029;-71
2022/11/28 03:09:55;;;;;;;4.25;2.10;;;3.00;99.90;;;;;;5023093;28;20391;-71
2022/11/28 03:12:45;;;;;;;10.45;4.25;;;3.00;99.90;;;;;;5022624;28;20026;-71
2022/11/28 03:15:13;;;;;;;8.60;3.72;;;2.70;99.90;;;;;;5022083;28;20400;-71
2022/11/28 03:17:39;;;;;;;6.93;3.65;;;2.40;99.90;;;;;;5020038;28;20106;-71
2022/11/28 03:20:18;;;;;;;5.95;3.25;;;2.40;99.90;;;;;;5023608;28;20152;-71
2022/11/28 03:22:49;;;;;;;5.40;2.55;;;2.50;99.90;;;;;;5019238;28;20029;-71
2022/11/28 03:25:36;;;;;;;6.95;2.90;;;2.80;99.90;;;;;;5021478;28;20100;-71
2022/11/28 03:28:11;;;;;;;4.45;2.28;;;2.60;99.90;;;;;;5017287;28;20029;-71
2022/11/28 03:31:12;;;;;;;6.00;2.33;;;2.60;99.90;;;;;;5021584;28;20502;-71
2022/11/28 03:33:43;;;;;;;6.57;2.50;;;2.70;99.90;;;;;;5018459;28;20044;-71
2022/11/28 03:36:41;;;;;;;7.60;2.60;;;2.80;99.90;;;;;;5019343;28;20053;-71
2022/11/28 03:39:15;;;;;;;5.70;2.83;;;2.90;99.90;;;;;;5023079;28;20038;-71
2022/11/28 03:41:48;;;;;;;4.32;2.33;;;3.00;99.90;;;;;;5019327;28;20318;-71
2022/11/28 03:44:19;;;;;;;6.32;2.20;;;3.10;99.90;;;;;;5022101;28;20108;-71
2022/11/28 03:46:47;;;;;;;5.93;2.90;;;3.10;99.90;;;;;;5022704;28;20435;-71
2022/11/28 03:49:20;;;;;;;5.85;2.50;;;3.00;99.90;;;;;;5018508;28;20079;-71
2022/11/28 03:52:03;;;;;;;4.43;2.05;;;2.90;99.90;;;;;;5020748;28;20112;-71
2022/11/28 03:54:33;;;;;;;5.32;2.65;;;2.90;99.90;;;;;;5023653;28;20450;-71
2022/11/28 03:57:09;;;;;;;5.32;2.22;;;2.90;99.90;;;;;;5021045;28;20028;-71
2022/11/28 03:59:40;;;;;;;7.25;2.63;;;2.90;99.90;;;;;;5021564;28;20072;-71
2022/11/28 04:02:32;;;;;;;6.38;2.42;;;3.00;99.90;;;;;;5021303;28;20072;-70
2022/11/28 04:05:22;;;;;;;5.80;2.63;;;3.10;99.90;;;;;;5014522;28;20032;-69
2022/11/28 04:08:20;;;;;;;6.55;3.50;;;3.20;99.90;;;;;;5014999;28;20030;-70
2022/11/28 04:11:04;;;;;;;7.28;4.18;;;2.90;99.90;;;;;;5016735;28;20042;-70
2022/11/28 04:13:39;;;;;;;9.10;4.20;;;2.50;99.90;;;;;;5019270;28;20035;-70
2022/11/28 04:16:39;;;;;;;6.93;4.20;;;2.40;99.90;;;;;;5017021;28;20467;-69
2022/11/28 04:19:16;;;;;;;6.93;4.00;;;2.20;99.90;;;;;;5014626;28;20032;-70
2022/11/28 04:22:22;;;;;;;6.90;3.95;;;2.30;99.90;;;;;;5001550;28;20172;-70
2022/11/28 04:24:56;;;;;;;8.02;3.58;;;2.30;99.90;;;;;;5008250;28;20037;-70
2022/11/28 04:27:34;;;;;;;8.73;4.05;;;2.50;99.90;;;;;;5015487;28;20044;-71
2022/11/28 04:30:01;;;;;;;8.27;3.72;;;2.60;99.90;;;;;;5002579;28;20030;-70
2022/11/28 04:32:30;;;;;;;8.48;4.10;;;2.60;99.90;;;;;;5007233;28;20052;-70
2022/11/28 04:35:09;;;;;;;5.20;3.00;;;2.50;99.90;;;;;;5004460;28;20026;-70
2022/11/28 04:37:37;;;;;;;6.90;2.92;;;2.50;99.90;;;;;;5008636;28;20443;-70
2022/11/28 04:40:08;;;;;;;5.32;2.67;;;2.50;99.90;;;;;;5015090;28;20568;-70
2022/11/28 04:42:41;;;;;;;6.32;3.20;;;2.60;99.90;;;;;;5018050;28;20037;-69
2022/11/28 04:45:14;;;;;;;13.70;3.60;;;2.70;99.90;;;;;;5003923;28;20092;-70
2022/11/28 04:47:40;;;;;;;6.25;3.30;;;2.70;99.90;;;;;;5015125;28;20025;-70
2022/11/28 04:50:07;;;;;;;7.53;3.45;;;2.60;99.90;;;;;;5018064;28;20026;-70
2022/11/28 04:52:59;;;;;;;6.32;3.15;;;2.60;99.90;;;;;;5006477;28;20030;-70
2022/11/28 04:55:37;;;;;;;5.50;2.67;;;2.60;99.90;;;;;;5015769;28;20597;-70
2022/11/28 04:58:32;;;;;;;5.47;2.63;;;2.70;99.90;;;;;;5021150;28;20033;-71
2022/11/28 05:00:59;;;;;;;4.82;2.40;;;2.60;99.90;;;;;;5007534;28;20053;-70
2022/11/28 05:03:29;;;;;;;4.80;2.30;;;2.60;99.90;;;;;;5009496;28;20045;-70
2022/11/28 05:05:55;;;;;;;7.03;2.95;;;2.80;99.90;;;;;;5014229;28;20465;-70
2022/11/28 05:08:21;;;;;;;7.75;2.78;;;2.90;99.90;;;;;;5017616;28;20064;-70
2022/11/28 05:10:46;;;;;;;6.40;3.13;;;2.90;99.90;;;;;;5014625;28;20026;-70
2022/11/28 05:13:12;;;;;;;5.63;2.88;;;2.80;99.90;;;;;;5011187;28;20087;-70
2022/11/28 05:15:38;;;;;;;6.85;3.50;;;2.70;99.90;;;;;;5018668;28;20456;-70
2022/11/28 05:18:04;;;;;;;9.07;2.75;;;2.80;99.90;;;;;;5007238;28;20637;-70
2022/11/28 05:20:30;;;;;;;8.82;2.78;;;2.80;99.90;;;;;;5011764;28;20033;-70
2022/11/28 05:22:56;;;;;;;7.38;2.70;;;2.80;99.90;;;;;;5019155;28;20057;-71
2022/11/28 05:25:22;;;;;;;6.30;3.47;;;2.80;99.90;;;;;;5018611;28;20135;-70
2022/11/28 05:27:47;;;;;;;5.53;2.65;;;2.70;99.90;;;;;;5018411;28;20045;-70
2022/11/28 05:30:13;;;;;;;4.07;2.38;;;2.80;99.90;;;;;;5023362;28;20171;-70
2022/11/28 05:32:39;;;;;;;5.32;2.60;;;2.80;99.90;;;;;;5021969;28;20036;-70
2022/11/28 05:35:06;;;;;;;6.95;2.78;;;2.90;99.90;;;;;;5018855;28;20034;-69
2022/11/28 05:37:31;;;;;;;4.70;2.20;;;3.00;99.90;;;;;;5014255;28;20033;-70
2022/11/28 05:39:57;;;;;;;5.47;2.38;;;2.90;99.90;;;;;;5011628;28;20033;-69
2022/11/28 05:42:24;;;;;;;4.10;2.47;;;2.90;99.90;;;;;;5022323;28;20408;-70
2022/11/28 05:44:50;;;;;;;6.50;2.60;;;2.80;99.90;;;;;;5016536;28;20380;-69
2022/11/28 05:47:16;;;;;;;4.50;2.30;;;3.00;99.90;;;;;;5011015;28;20030;-69
2022/11/28 05:49:42;;;;;;;6.65;2.72;;;3.10;99.90;;;;;;5018318;28;20109;-70
2022/11/28 05:52:08;;;;;;;5.20;2.08;;;3.10;99.90;;;;;;5013703;28;20705;-70
2022/11/28 05:54:33;;;;;;;5.13;2.40;;;3.00;99.90;;;;;;5020923;28;20121;-70
2022/11/28 05:56:59;;;;;;;7.65;2.90;;;2.90;99.90;;;;;;5012963;28;20091;-70
2022/11/28 05:59:25;;;;;;;4.30;2.22;;;2.90;99.90;;;;;;5008091;28;20026;-70
2022/11/28 06:01:50;;;;;;;4.78;2.38;;;2.90;99.90;;;;;;5023398;28;20112;-70
2022/11/28 06:04:16;;;;;;;6.28;2.47;;;2.90;99.90;;;;;;5006281;28;25932;-70
2022/11/28 06:06:42;;;;;;;7.72;3.25;;;2.90;99.90;;;;;;5014970;28;20065;-70
2022/11/28 06:09:07;;;;;;;5.78;3.22;;;2.90;99.90;;;;;;5011918;28;20690;-69
2022/11/28 06:11:34;;;;;;;7.75;3.83;;;3.00;99.90;;;;;;5016432;28;20029;-70
2022/11/28 06:14:01;;;;;;;8.30;2.97;;;2.90;99.90;;;;;;5010232;28;20061;-70
2022/11/28 06:16:29;;;;;;;6.38;3.20;;;2.80;99.90;;;;;;5017140;28;20053;-70
2022/11/28 06:18:57;;;;;;;10.10;3.40;;;2.80;99.90;;;;;;5007477;28;20512;-70
2022/11/28 06:21:23;;;;;;;9.52;3.63;;;2.70;99.90;;;;;;5007873;28;20064;-70
2022/11/28 06:23:49;;;;;;;5.35;2.95;;;2.70;99.90;;;;;;5015271;28;20032;-70
2022/11/28 06:26:18;;;;;;;8.10;4.00;;;2.70;99.90;;;;;;5016190;28;20037;-70
2022/11/28 06:28:44;;;;;;;5.85;3.45;;;2.80;99.90;;;;;;5024132;28;20030;-70
2022/11/28 06:31:15;;;;;;;7.25;3.85;;;2.60;99.90;;;;;;5009553;28;20048;-70
2022/11/28 06:33:41;;;;;;;6.70;2.97;;;2.60;99.90;;;;;;5009766;28;20124;-70
2022/11/28 06:36:09;;;;;;;6.55;2.70;;;2.60;99.90;;;;;;5008287;28;20172;-70
2022/11/28 06:38:35;;;;;;;6.82;3.28;;;2.70;99.90;;;;;;5007791;28;20137;-71
2022/11/28 06:41:06;;;;;;;7.63;3.63;;;2.80;99.90;;;;;;5010262;28;20488;-70
2022/11/28 06:43:33;;;;;;;6.18;2.60;;;2.80;99.90;;;;;;5009725;28;20034;-70
2022/11/28 06:45:58;;;;;;;6.25;2.72;;;2.80;99.90;;;;;;5020244;28;20028;-70
2022/11/28 06:48:25;;;;;;;4.70;2.03;;;2.80;99.90;;;;;;5016669;28;20042;-70
2022/11/28 06:50:51;;;;;;;8.32;2.63;;;2.80;99.90;;;;;;5011976;28;20056;-70
2022/11/28 06:53:18;;;;;;;5.05;2.47;;;2.90;99.90;;;;;;5018033;28;20025;-70
2022/11/28 06:55:44;;;;;;;6.13;2.83;;;2.90;99.90;;;;;;5009718;28;20087;-70
2022/11/28 06:58:10;;;;;;;5.30;2.78;;;2.90;99.90;;;;;;5012892;28;20029;-70
2022/11/28 07:00:36;;;;;;;7.35;3.08;;;2.80;99.90;;;;;;5004784;28;20508;-70
2022/11/28 07:03:02;;;;;;;6.47;2.83;;;2.90;99.90;;;;;;5004487;28;20030;-71
2022/11/28 07:05:29;;;;;;;7.80;3.45;;;2.90;99.90;;;;;;5003797;28;20095;-70
2022/11/28 07:07:59;;;;;;;5.93;2.85;;;3.00;99.90;;;;;;5014353;28;20049;-70
2022/11/28 07:10:26;;;;;;;7.10;3.15;;;3.00;99.90;;;;;;5008776;28;20113;-70
2022/11/28 07:12:53;;;;;;;6.72;2.95;;;2.90;99.90;;;;;;5010851;28;20116;-70
2022/11/28 07:15:19;;;;;;;7.90;3.70;;;2.70;99.90;;;;;;5012614;28;20030;-70
2022/11/28 07:17:45;;;;;;;6.13;2.72;;;2.90;99.90;;;;;;5012342;28;20060;-70
2022/11/28 07:20:11;;;;;;;5.82;2.85;;;3.10;99.90;;;;;;5010995;28;20068;-70
2022/11/28 07:22:37;;;;;;;6.47;3.17;;;3.00;99.90;;;;;;5005189;28;20536;-70
2022/11/28 07:25:02;;;;;;;5.57;2.88;;;3.10;99.90;;;;;;5015839;28;20032;-70
2022/11/28 07:27:28;;;;;;;7.75;3.47;;;3.10;99.90;;;;;;5011745;28;20026;-70
2022/11/28 07:29:54;;;;;;;7.30;2.95;;;3.00;99.90;;;;;;5010841;28;20064;-70
2022/11/28 07:32:19;;;;;;;7.30;3.70;;;3.00;99.90;;;;;;5008229;28;20069;-69
2022/11/28 07:34:45;;;;;;;11.43;5.63;;;3.10;99.90;;;;;;5025090;28;20349;-69
2022/11/28 07:37:12;;;;;;;9.88;5.25;;;3.10;99.90;;;;;;5016863;28;20109;-69
2022/11/28 07:39:37;;;;;;;12.75;6.22;;;3.10;99.90;;;;;;5009313;28;20124;-71
2022/11/28 07:42:03;;;;;;;11.13;5.43;;;3.00;99.90;;;;;;5012747;28;20543;-70
2022/11/28 07:44:29;;;;;;;10.63;5.75;;;3.10;99.90;;;;;;5020684;28;20111;-70
2022/11/28 07:46:55;;;;;;;14.10;7.93;;;3.20;99.90;;;;;;5024335;28;20064;-70
2022/11/28 07:49:20;;;;;;;10.30;6.35;;;3.20;99.90;;;;;;5006769;28;20499;-70
2022/11/28 07:51:46;;;;;;;12.07;5.80;;;3.10;99.90;;;;;;5005259;28;20472;-70
2022/11/28 07:54:12;;;;;;;7.95;4.60;;;3.20;99.90;;;;;;4999368;28;20029;-70
2022/11/28 07:56:38;;;;;;;8.95;4.15;;;3.20;99.90;;;;;;5005447;28;20032;-70
2022/11/28 07:59:04;;;;;;;9.85;4.45;;;3.30;99.90;;;;;;5005391;28;20034;-70
2022/11/28 08:01:34;;;;;;;7.13;4.03;;;3.40;99.90;;;;;;5004555;28;20049;-70
2022/11/28 08:04:02;;;;;;;21.85;10.73;;;3.30;99.90;;;;;;5005200;28;20033;-70
2022/11/28 08:06:29;;;;;;;49.15;24.45;;;3.30;99.90;;;;;;5006153;28;20042;-70
2022/11/28 08:08:56;;;;;;;12.93;7.72;;;3.40;99.90;;;;;;5007094;28;20540;-70
2022/11/28 08:11:23;;;;;;;9.63;4.70;;;3.40;99.90;;;;;;5006478;28;20510;-71
2022/11/28 08:13:50;;;;;;;9.35;5.18;;;3.50;99.90;;;;;;5007340;28;20030;-70
2022/11/28 08:16:18;;;;;;;7.43;4.05;;;3.50;99.90;;;;;;5012468;28;20518;-71
2022/11/28 08:18:44;;;;;;;8.60;3.67;;;3.60;99.90;;;;;;5006961;28;20045;-71
2022/11/28 08:21:19;;;;;;;9.13;4.47;;;3.60;99.90;;;;;;5001076;28;20487;-71
2022/11/28 08:23:45;;;;;;;;;;;3.50;99.90;;;;;;5002568;28;20038;-71
2022/11/28 08:26:13;;;;;;;7.72;3.80;;;3.60;99.90;;;;;;5003055;28;19913;-71
2022/11/28 08:28:39;;;;;;;8.35;3.90;;;3.50;99.90;;;;;;5000649;28;20449;-71
2022/11/28 08:31:12;;;;;;;8.00;4.45;;;3.70;99.90;;;;;;5004237;28;20022;-71
2022/11/28 08:33:38;;;;;;;10.18;4.75;;;3.60;99.90;;;;;;5004785;28;20532;-71
2022/11/28 08:36:05;;;;;;;8.65;4.80;;;3.60;99.90;;;;;;5006859;28;20091;-71
2022/11/28 08:38:31;;;;;;;9.38;5.32;;;3.50;99.90;;;;;;5004588;28;20357;-71
2022/11/28 08:41:05;;;;;;;12.02;5.20;;;3.30;99.90;;;;;;5005226;28;20030;-71
2022/11/28 08:43:33;;;;;;;8.10;4.97;;;3.30;99.90;;;;;;5007651;28;20038;-71
2022/11/28 08:45:59;;;;;;;10.00;5.22;;;3.10;99.90;;;;;;5004710;28;20022;-70
2022/11/28 08:48:24;;;;;;;10.95;5.07;;;3.30;99.90;;;;;;5005029;28;20118;-70
2022/11/28 08:50:51;;;;;;;9.15;5.70;;;3.40;99.90;;;;;;5006444;28;20565;-70
2022/11/28 08:53:16;;;;;;;10.75;5.43;;;3.50;99.90;;;;;;4993861;28;20053;-71
2022/11/28 08:55:43;;;;;;;12.18;5.85;;;3.50;99.90;;;;;;5009864;28;20072;-71
2022/11/28 08:58:10;;;;;;;10.23;5.80;;;3.60;99.90;;;;;;5010162;28;20060;-71
2022/11/28 09:00:37;;;;;;;8.18;4.38;;;3.60;99.90;;;;;;5008946;28;20041;-70
2022/11/28 09:03:03;;;;;;;12.15;5.32;;;3.50;99.90;;;;;;5008673;28;20053;-71
2022/11/28 09:05:29;;;;;;;8.57;4.65;;;3.60;99.90;;;;;;5009803;28;20601;-70
2022/11/28 09:07:55;;;;;;;11.30;5.63;;;3.70;99.90;;;;;;5009830;28;20527;-71
2022/11/28 09:10:22;;;;;;;11.38;5.43;;;3.60;99.90;;;;;;5011097;28;20061;-71
2022/11/28 09:12:48;;;;;;;9.25;4.75;;;3.70;99.90;;;;;;5006013;28;20108;-72
2022/11/28 09:15:13;;;;;;;12.13;5.75;;;3.80;99.90;;;;;;5005938;28;20710;-72
2022/11/28 09:17:39;;;;;;;9.27;4.75;;;3.80;99.90;;;;;;5009629;28;20096;-72
2022/11/28 09:20:06;;;;;;;10.25;4.75;;;3.90;99.90;;;;;;5006316;28;20034;-72
2022/11/28 09:22:33;;;;;;;7.72;4.45;;;4.10;99.90;;;;;;5007683;28;20045;-72
2022/11/28 09:24:58;;;;;;;7.90;4.20;;;4.20;99.90;;;;;;5006295;28;20034;-72
2022/11/28 09:27:24;;;;;;;7.22;4.40;;;4.20;99.90;;;;;;5006057;28;20034;-72
2022/11/28 09:29:50;;;;;;;7.40;4.95;;;4.20;99.90;;;;;;5005097;28;20524;-72
2022/11/28 09:32:15;;;;;;;13.52;5.60;;;4.30;99.90;;;;;;5008471;28;20053;-72
2022/11/28 09:34:41;;;;;;;12.98;5.43;;;4.20;99.90;;;;;;5009176;28;20034;-72
2022/11/28 09:37:07;;;;;;;11.52;4.88;;;4.10;99.90;;;;;;5003283;28;20121;-72
2022/11/28 09:39:33;;;;;;;11.48;5.32;;;4.20;99.90;;;;;;5008499;28;20029;-72
2022/11/28 09:42:17;;;;;;;7.60;4.28;;;4.10;99.90;;;;;;5008773;28;20045;-72
2022/11/28 09:44:53;;;;;;;7.27;4.07;;;4.20;99.90;;;;;;5008726;28;20595;-72
2022/11/28 09:47:24;;;;;;;8.50;4.25;;;4.30;99.90;;;;;;5010350;28;20751;-72
2022/11/28 09:50:09;;;;;;;11.65;6.07;;;4.40;99.90;;;;;;5008543;28;20037;-72
2022/11/28 09:52:59;;;;;;;7.40;3.90;;;4.40;99.80;;;;;;5009010;28;20018;-72
2022/11/28 09:55:37;;;;;;;9.85;5.00;;;4.20;99.40;;;;;;5003323;28;20110;-72
2022/11/28 09:59:01;;;;;;;9.05;4.10;;;4.30;99.50;;;;;;5006900;28;20082;-73
2022/11/28 10:01:44;;;;;;;10.95;5.45;;;4.20;99.00;;;;;;4996750;28;20061;-72
2022/11/28 10:04:41;;;;;;;8.38;4.80;;;4.40;99.70;;;;;;5005519;28;20099;-73
2022/11/28 10:07:19;;;;;;;9.82;5.15;;;4.40;99.30;;;;;;5023433;28;20228;-73
2022/11/28 10:09:47;;;;;;;11.88;7.57;;;4.50;99.40;;;;;;5009508;28;20152;-73
2022/11/28 10:12:42;;;;;;;12.68;5.10;;;4.60;99.50;;;;;;5012643;28;20054;-71
2022/11/28 10:15:29;;;;;;;8.55;4.35;;;4.60;99.40;;;;;;5012224;28;20192;-71
2022/11/28 10:18:18;;;;;;;7.07;3.92;;;4.60;99.60;;;;;;5008447;28;20061;-72
2022/11/28 10:20:48;;;;;;;9.73;4.60;;;4.60;99.00;;;;;;5007063;28;20045;-71
2022/11/28 10:23:32;;;;;;;7.18;3.90;;;4.50;98.70;;;;;;5007211;28;20034;-71
2022/11/28 10:26:06;;;;;;;6.10;3.60;;;4.60;98.70;;;;;;5003784;28;20197;-72
2022/11/28 10:28:36;;;;;;;7.28;3.53;;;4.60;98.50;;;;;;5012034;28;20037;-72
2022/11/28 10:31:15;;;;;;;7.18;3.88;;;4.60;98.30;;;;;;5007747;28;20058;-72
2022/11/28 10:33:56;;;;;;;7.40;3.28;;;4.70;98.30;;;;;;4996856;28;20035;-72
2022/11/28 10:36:27;;;;;;;6.97;3.40;;;4.80;98.80;;;;;;4999197;28;20552;-72
2022/11/28 10:38:53;;;;;;;7.10;3.67;;;4.80;98.80;;;;;;5003698;28;20491;-72
2022/11/28 10:41:33;;;;;;;6.55;3.90;;;4.80;99.10;;;;;;5009180;28;20034;-72
2022/11/28 10:44:22;;;;;;;7.82;3.80;;;4.60;99.30;;;;;;4994898;28;20038;-72
2022/11/28 10:47:22;;;;;;;6.70;3.33;;;4.70;99.30;;;;;;5007225;28;20106;-72
2022/11/28 10:50:01;;;;;;;6.55;3.13;;;4.70;99.00;;;;;;5008588;28;20427;-72
2022/11/28 10:52:32;;;;;;;10.60;3.83;;;4.70;98.50;;;;;;5005705;28;20030;-72
2022/11/28 10:55:21;;;;;;;6.65;3.63;;;4.80;98.60;;;;;;5003575;28;20037;-72
2022/11/28 10:58:09;;;;;;;12.05;5.05;;;4.80;98.90;;;;;;5007710;28;20060;-72
2022/11/28 11:00:36;;;;;;;9.23;4.80;;;4.90;98.80;;;;;;5003852;28;20038;-72
2022/11/28 11:03:04;;;;;;;11.15;4.88;;;4.80;99.30;;;;;;5000749;28;21432;-72
2022/11/28 11:05:35;;;;;;;8.88;4.70;;;4.70;99.20;;;;;;5000843;28;20449;-74
2022/11/28 11:08:21;;;;;;;8.10;4.65;;;4.70;99.40;;;;;;5002875;28;20033;-72
2022/11/28 11:10:51;;;;;;;6.40;4.25;;;4.60;99.30;;;;;;4995636;28;20032;-72
2022/11/28 11:13:26;;;;;;;9.65;4.78;;;4.80;99.40;;;;;;5005918;28;20524;-70
2022/11/28 11:15:59;;;;;;;16.35;9.88;;;5.00;99.30;;;;;;5006198;28;20044;-70
2022/11/28 11:18:27;;;;;;;9.25;4.50;;;5.00;99.20;;;;;;5003972;28;20040;-70
2022/11/28 11:21:06;;;;;;;7.28;4.18;;;5.00;99.10;;;;;;4994547;28;20041;-70
2022/11/28 11:23:31;;;;;;;8.52;3.40;;;4.90;98.90;;;;;;4996013;28;20033;-70
2022/11/28 11:25:57;;;;;;;7.80;4.15;;;4.80;99.20;;;;;;4992269;28;20041;-70
2022/11/28 11:28:45;;;;;;;12.85;4.03;;;4.80;99.10;;;;;;4993087;28;20041;-71
2022/11/28 11:31:53;;;;;;;7.82;4.43;;;5.00;99.30;;;;;;5005686;28;20026;-71
2022/11/28 11:34:21;;;;;;;6.35;3.65;;;5.00;99.10;;;;;;4991331;28;20124;-70
2022/11/28 11:36:47;;;;;;;7.65;4.00;;;5.00;98.70;;;;;;4995461;28;20037;-71
2022/11/28 11:39:13;;;;;;;7.35;4.18;;;5.10;98.80;;;;;;4996372;28;20022;-72
2022/11/28 11:41:43;;;;;;;12.70;5.03;;;5.20;99.20;;;;;;4993464;28;20038;-72
2022/11/28 11:44:21;;;;;;;9.98;4.53;;;5.10;99.00;;;;;;4996228;28;20031;-71
2022/11/28 11:47:01;;;;;;;9.45;4.50;;;5.20;98.80;;;;;;5000940;28;20041;-71
2022/11/28 11:49:33;;;;;;;13.63;4.38;;;5.30;98.90;;;;;;5001894;28;20029;-71
2022/11/28 11:52:03;;;;;;;9.77;4.13;;;5.30;98.90;;;;;;4996454;28;20033;-71
2022/11/28 11:54:28;;;;;;;6.85;4.00;;;5.20;98.10;;;;;;4995073;28;20136;-71
2022/11/28 11:56:56;;;;;;;8.93;4.40;;;5.20;98.10;;;;;;4994100;28;20121;-72
2022/11/28 11:59:46;;;;;;;8.90;4.63;;;5.10;97.90;;;;;;4997991;28;20072;-72
2022/11/28 12:02:34;;;;;;;8.48;4.13;;;5.10;98.30;;;;;;4988172;28;20041;-71
2022/11/28 12:05:26;;;;;;;6.50;3.88;;;5.20;98.10;;;;;;4992428;28;20026;-72
2022/11/28 12:08:11;;;;;;;7.53;3.55;;;5.10;97.90;;;;;;4991966;28;20080;-72
2022/11/28 12:10:45;;;;;;;5.90;3.35;;;5.10;97.70;;;;;;4990328;28;20033;-71
2022/11/28 12:13:22;;;;;;;8.80;3.53;;;5.20;98.20;;;;;;4993076;28;20034;-72
2022/11/28 12:16:22;;;;;;;10.88;5.10;;;5.10;98.70;;;;;;4992666;28;20379;-72
2022/11/28 12:19:11;;;;;;;8.93;4.32;;;5.10;98.20;;;;;;4997049;28;20037;-72
2022/11/28 12:22:05;;;;;;;10.45;3.67;;;5.10;97.90;;;;;;4995925;28;20113;-72
2022/11/28 12:24:37;;;;;;;8.52;4.15;;;5.20;98.10;;;;;;4992642;28;20125;-72
2022/11/28 12:27:32;;;;;;;7.72;3.83;;;5.30;97.70;;;;;;5003724;28;20032;-71
2022/11/28 12:30:13;;;;;;;7.07;3.50;;;5.30;97.80;;;;;;5005708;28;20042;-72
2022/11/28 12:33:12;;;;;;;7.30;3.80;;;5.30;97.40;;;;;;5009059;28;20033;-71
2022/11/28 12:35:39;;;;;;;6.22;3.13;;;5.40;97.50;;;;;;5007167;28;20500;-72
2022/11/28 12:38:36;;;;;;;9.05;4.00;;;5.50;97.60;;;;;;5009601;28;20034;-72
2022/11/28 12:41:15;;;;;;;7.88;3.13;;;5.60;97.20;;;;;;4997820;28;20046;-72
2022/11/28 12:43:58;;;;;;;7.32;2.92;;;5.50;97.10;;;;;;5008513;28;20033;-72
2022/11/28 12:47:00;;;;;;;5.55;2.80;;;5.50;96.60;;;;;;5007182;28;21416;-72
2022/11/28 12:49:45;;;;;;;13.93;4.28;;;5.50;95.50;;;;;;4990581;28;20050;-72
2022/11/28 12:52:34;;;;;;;5.93;2.90;;;5.50;97.10;;;;;;5009657;28;20113;-72
2022/11/28 12:55:30;;;;;;;7.43;3.28;;;5.40;96.20;;;;;;5008953;28;20033;-74
2022/11/28 12:58:07;;;;;;;5.97;2.47;;;5.30;96.10;;;;;;5006965;28;20073;-74
2022/11/28 13:00:48;;;;;;;4.68;2.33;;;5.40;95.80;;;;;;5008089;28;20026;-74
2022/11/28 13:03:28;;;;;;;6.10;2.78;;;5.40;96.10;;;;;;4996336;28;20132;-73
2022/11/28 13:06:03;;;;;;;13.48;4.15;;;5.30;96.60;;;;;;5009638;28;20099;-74
2022/11/28 13:08:51;;;;;;;8.25;3.97;;;5.30;97.00;;;;;;5009316;28;20064;-73
2022/11/28 13:11:25;;;;;;;8.02;4.25;;;5.30;97.60;;;;;;5004038;28;20498;-73
2022/11/28 13:14:00;;;;;;;10.10;5.47;;;5.40;97.80;;;;;;5005775;28;20580;-73
2022/11/28 13:17:01;;;;;;;9.75;5.35;;;5.50;98.00;;;;;;5004721;28;20053;-73
2022/11/28 13:19:57;;;;;;;12.65;5.20;;;5.50;98.20;;;;;;4982647;28;20156;-73
2022/11/28 13:22:26;;;;;;;9.30;4.88;;;5.40;98.00;;;;;;4990018;28;20408;-73
2022/11/28 13:25:19;;;;;;;12.10;5.10;;;5.40;98.20;;;;;;5003101;28;20460;-73